Time;durP1;ratioP1;P1;durP2;ratioP2;P2;SDS_P1;SDS_P2;PMS_P1;PMS_P2;Temp;Humidity;BMP_temperature;BMP_pressure;BME280_temperature;BME280_humidity;BME280_pressure;Samples;Min_cycle;Max_cycle;Signal;HPM_P1;HPM_P2
2022/11/21 00:00:28;;;;;;;4.20;3.50;;;4.10;99.90;;;;;;5054820;28;20276;-72
2022/11/21 00:02:58;;;;;;;5.00;3.73;;;4.20;99.90;;;;;;5054787;28;20626;-72
2022/11/21 00:05:25;;;;;;;4.47;3.83;;;4.20;99.90;;;;;;5055166;28;20252;-72
2022/11/21 00:07:51;;;;;;;8.13;3.93;;;4.20;99.90;;;;;;5054629;28;20221;-72
2022/11/21 00:10:18;;;;;;;7.83;3.90;;;4.30;99.90;;;;;;5055118;28;20203;-71
2022/11/21 00:12:44;;;;;;;5.97;3.47;;;4.40;99.90;;;;;;5054976;28;20328;-72
2022/11/21 00:15:11;;;;;;;4.67;2.97;;;4.40;99.90;;;;;;5054824;28;20201;-71
2022/11/21 00:17:38;;;;;;;7.80;3.53;;;4.40;99.90;;;;;;5054721;28;20251;-71
2022/11/21 00:20:07;;;;;;;6.73;3.50;;;4.40;99.90;;;;;;5054714;28;20247;-71
2022/11/21 00:22:34;;;;;;;5.70;3.33;;;4.40;99.90;;;;;;5054594;28;20230;-71
2022/11/21 00:25:01;;;;;;;4.83;3.00;;;4.30;99.90;;;;;;5054780;28;20201;-71
2022/11/21 00:27:27;;;;;;;5.20;3.10;;;4.30;99.90;;;;;;5054621;28;20206;-71
2022/11/21 00:29:54;;;;;;;4.23;2.97;;;4.40;99.90;;;;;;5054474;28;20204;-71
2022/11/21 00:32:20;;;;;;;8.87;3.10;;;4.50;99.90;;;;;;5054423;28;20204;-71
2022/11/21 00:34:47;;;;;;;4.33;3.27;;;4.40;99.90;;;;;;5054171;28;20196;-71
2022/11/21 00:37:15;;;;;;;4.03;2.80;;;4.40;99.90;;;;;;5054384;28;20197;-71
2022/11/21 00:39:42;;;;;;;8.93;4.00;;;4.50;99.90;;;;;;5054566;28;20209;-71
2022/11/21 00:42:08;;;;;;;5.63;3.30;;;4.40;99.90;;;;;;5054158;28;20284;-71
2022/11/21 00:44:35;;;;;;;5.93;2.90;;;4.40;99.90;;;;;;5054087;28;20229;-71
2022/11/21 00:47:01;;;;;;;5.80;3.10;;;4.40;99.90;;;;;;5054101;28;20201;-71
2022/11/21 00:49:28;;;;;;;6.00;2.93;;;4.50;99.90;;;;;;5053972;28;20199;-70
2022/11/21 00:51:55;;;;;;;4.00;2.87;;;4.40;99.90;;;;;;5054290;28;20651;-70
2022/11/21 00:54:23;;;;;;;3.60;2.37;;;4.40;99.90;;;;;;5054088;28;20564;-71
2022/11/21 00:56:49;;;;;;;2.97;2.20;;;4.50;99.90;;;;;;5053908;28;20243;-70
2022/11/21 00:59:16;;;;;;;8.63;2.60;;;4.50;99.90;;;;;;5053674;28;20201;-70
2022/11/21 01:01:42;;;;;;;4.03;2.53;;;4.50;99.90;;;;;;5054129;28;20275;-70
2022/11/21 01:04:10;;;;;;;4.57;2.60;;;4.50;99.90;;;;;;5054554;28;20199;-71
2022/11/21 01:06:37;;;;;;;4.00;2.07;;;4.50;99.90;;;;;;5054123;28;20252;-70
2022/11/21 01:09:04;;;;;;;4.70;2.23;;;4.40;99.90;;;;;;5053920;28;20228;-70
2022/11/21 01:11:32;;;;;;;4.43;2.43;;;4.40;99.90;;;;;;5053892;28;20199;-70
2022/11/21 01:13:59;;;;;;;5.13;2.17;;;4.40;99.90;;;;;;5053605;28;20655;-70
2022/11/21 01:16:27;;;;;;;8.00;2.40;;;4.40;99.90;;;;;;5053520;28;20654;-71
2022/11/21 01:18:54;;;;;;;5.10;2.50;;;4.40;99.90;;;;;;5053649;28;20656;-70
2022/11/21 01:21:23;;;;;;;6.43;2.37;;;4.40;99.90;;;;;;5053535;28;20222;-70
2022/11/21 01:23:50;;;;;;;2.63;1.93;;;4.50;99.90;;;;;;5053782;28;20195;-70
2022/11/21 01:26:19;;;;;;;5.13;2.40;;;4.50;99.90;;;;;;5053709;28;20229;-71
2022/11/21 01:28:48;;;;;;;5.13;2.17;;;4.50;99.90;;;;;;5053459;28;20194;-70
2022/11/21 01:31:16;;;;;;;2.93;2.10;;;4.50;99.90;;;;;;5053283;28;20246;-70
2022/11/21 01:33:43;;;;;;;6.43;2.30;;;4.50;99.90;;;;;;5053454;28;20210;-70
2022/11/21 01:36:11;;;;;;;3.70;2.13;;;4.50;99.90;;;;;;5053694;28;20202;-71
2022/11/21 01:38:38;;;;;;;14.03;4.63;;;4.50;99.90;;;;;;5053620;28;20200;-72
2022/11/21 01:41:05;;;;;;;5.80;1.80;;;4.50;99.90;;;;;;5053661;28;20274;-70
2022/11/21 01:43:32;;;;;;;5.10;2.20;;;4.50;99.90;;;;;;5053948;28;20201;-70
2022/11/21 01:46:03;;;;;;;4.87;2.17;;;4.50;99.90;;;;;;5053405;28;20733;-71
2022/11/21 01:48:36;;;;;;;5.37;2.23;;;4.50;99.90;;;;;;5055135;28;20201;-71
2022/11/21 01:51:07;;;;;;;5.23;2.03;;;4.50;99.90;;;;;;5056621;28;20235;-71
2022/11/21 01:53:35;;;;;;;3.93;1.90;;;4.50;99.90;;;;;;5056822;28;20207;-71
2022/11/21 01:56:02;;;;;;;6.07;2.10;;;4.50;99.90;;;;;;5055263;28;20198;-71
2022/11/21 01:58:31;;;;;;;5.80;2.00;;;4.50;99.90;;;;;;5054696;28;20194;-71
2022/11/21 02:00:58;;;;;;;4.77;2.00;;;4.50;99.90;;;;;;5053772;28;20272;-70
2022/11/21 02:03:29;;;;;;;3.17;1.63;;;4.50;99.90;;;;;;5053624;28;20194;-71
2022/11/21 02:05:56;;;;;;;5.53;1.70;;;4.40;99.90;;;;;;5053265;28;20201;-70
2022/11/21 02:08:24;;;;;;;3.37;1.60;;;4.40;99.90;;;;;;5053045;28;20640;-70
2022/11/21 02:11:02;;;;;;;2.27;1.70;;;4.40;99.90;;;;;;5055991;28;20707;-71
2022/11/21 02:13:29;;;;;;;3.00;1.70;;;4.30;99.90;;;;;;5057488;28;20194;-71
2022/11/21 02:15:56;;;;;;;2.20;1.50;;;4.30;99.90;;;;;;5056798;28;20655;-71
2022/11/21 02:18:22;;;;;;;4.80;1.80;;;4.30;99.90;;;;;;5057260;28;20253;-71
2022/11/21 02:20:58;;;;;;;5.17;1.83;;;4.30;99.90;;;;;;5056749;28;20207;-71
2022/11/21 02:23:31;;;;;;;2.30;1.40;;;4.30;99.90;;;;;;5056931;28;20223;-71
2022/11/21 02:26:00;;;;;;;4.43;2.30;;;4.20;99.90;;;;;;5056882;28;20203;-71
2022/11/21 02:28:28;;;;;;;3.90;1.60;;;4.30;99.90;;;;;;5056756;28;20258;-71
2022/11/21 02:30:55;;;;;;;3.70;1.93;;;4.30;99.90;;;;;;5056756;28;20202;-71
2022/11/21 02:33:21;;;;;;;3.00;1.80;;;4.30;99.90;;;;;;5056882;28;20204;-71
2022/11/21 02:35:56;;;;;;;4.27;1.83;;;4.20;99.90;;;;;;5056647;28;20202;-71
2022/11/21 02:38:27;;;;;;;2.70;2.10;;;4.30;99.90;;;;;;5057138;28;20280;-70
2022/11/21 02:41:06;;;;;;;6.33;2.03;;;4.30;99.90;;;;;;5056801;28;20195;-71
2022/11/21 02:43:39;;;;;;;3.93;1.93;;;4.20;99.90;;;;;;5057537;28;20205;-71
2022/11/21 02:46:06;;;;;;;5.07;2.00;;;4.30;99.90;;;;;;5057424;28;20562;-71
2022/11/21 02:48:33;;;;;;;3.87;2.00;;;4.30;99.90;;;;;;5059055;28;20199;-72
2022/11/21 02:51:00;;;;;;;5.87;2.40;;;4.30;99.90;;;;;;5066101;28;20683;-71
2022/11/21 02:53:26;;;;;;;8.23;2.20;;;4.30;99.90;;;;;;5063381;28;20197;-71
2022/11/21 02:55:53;;;;;;;5.27;1.93;;;4.30;99.90;;;;;;5063534;28;20198;-72
2022/11/21 02:58:20;;;;;;;3.90;2.20;;;4.40;99.90;;;;;;5063919;28;20229;-71
2022/11/21 03:00:48;;;;;;;4.50;2.50;;;4.40;99.90;;;;;;5063972;28;20245;-72
2022/11/21 03:03:14;;;;;;;4.23;2.30;;;4.40;99.90;;;;;;5062813;28;20231;-72
2022/11/21 03:05:41;;;;;;;5.50;2.50;;;4.40;99.90;;;;;;5062969;28;20226;-72
2022/11/21 03:08:09;;;;;;;5.10;2.10;;;4.40;99.90;;;;;;5062521;28;20294;-72
2022/11/21 03:10:35;;;;;;;3.60;1.90;;;4.40;99.90;;;;;;5062358;28;20211;-72
2022/11/21 03:13:02;;;;;;;4.30;2.10;;;4.40;99.90;;;;;;5060133;28;20719;-72
2022/11/21 03:15:30;;;;;;;4.77;2.50;;;4.40;99.90;;;;;;5056066;28;20194;-72
2022/11/21 03:18:00;;;;;;;3.03;2.13;;;4.40;99.90;;;;;;5056300;28;20210;-72
2022/11/21 03:20:26;;;;;;;3.53;2.03;;;4.40;99.90;;;;;;5055754;28;20195;-72
2022/11/21 03:22:53;;;;;;;4.10;2.37;;;4.40;99.90;;;;;;5055809;28;20281;-72
2022/11/21 03:25:20;;;;;;;4.83;2.47;;;4.30;99.90;;;;;;5055931;28;20193;-72
2022/11/21 03:27:49;;;;;;;5.57;2.17;;;4.30;99.90;;;;;;5055877;28;20202;-72
2022/11/21 03:30:16;;;;;;;5.13;2.07;;;4.30;99.90;;;;;;5055971;28;20269;-71
2022/11/21 03:32:43;;;;;;;3.83;2.20;;;4.40;99.90;;;;;;5055918;28;20199;-72
2022/11/21 03:35:11;;;;;;;6.10;1.90;;;4.40;99.90;;;;;;5056026;28;20199;-72
2022/11/21 03:37:38;;;;;;;4.73;2.10;;;4.40;99.90;;;;;;5055682;28;20235;-72
2022/11/21 03:40:05;;;;;;;2.13;1.70;;;4.40;99.90;;;;;;5055548;28;20252;-72
2022/11/21 03:42:32;;;;;;;4.80;1.97;;;4.40;99.90;;;;;;5055621;28;20224;-72
2022/11/21 03:44:59;;;;;;;4.90;1.93;;;4.40;99.90;;;;;;5055545;28;20199;-72
2022/11/21 03:47:26;;;;;;;4.50;1.80;;;4.40;99.90;;;;;;5055478;28;20204;-72
2022/11/21 03:49:53;;;;;;;3.47;1.90;;;4.40;99.90;;;;;;5055485;28;20206;-72
2022/11/21 03:52:21;;;;;;;3.47;1.83;;;4.50;99.90;;;;;;5055373;28;20198;-72
2022/11/21 03:54:47;;;;;;;3.53;1.90;;;4.50;99.90;;;;;;5055208;28;20253;-72
2022/11/21 03:57:14;;;;;;;2.90;1.70;;;4.50;99.90;;;;;;5055259;28;20208;-72
2022/11/21 03:59:41;;;;;;;3.40;1.50;;;4.60;99.90;;;;;;5055269;28;20260;-72
2022/11/21 04:02:07;;;;;;;2.37;1.73;;;4.60;99.90;;;;;;5054951;28;20615;-72
2022/11/21 04:04:34;;;;;;;5.23;1.70;;;4.60;99.90;;;;;;5055226;28;20203;-72
2022/11/21 04:07:01;;;;;;;2.23;1.47;;;4.60;99.90;;;;;;5054990;28;20197;-72
2022/11/21 04:09:28;;;;;;;2.30;1.60;;;4.50;99.90;;;;;;5054992;28;20256;-72
2022/11/21 04:11:55;;;;;;;2.90;1.60;;;4.40;99.90;;;;;;5054819;28;20657;-72
2022/11/21 04:14:22;;;;;;;2.93;1.53;;;4.40;99.90;;;;;;5055007;28;20199;-72
2022/11/21 04:16:48;;;;;;;2.37;1.50;;;4.40;99.90;;;;;;5054912;28;20206;-72
2022/11/21 04:19:15;;;;;;;1.67;1.40;;;4.40;99.90;;;;;;5054884;28;20271;-72
2022/11/21 04:21:42;;;;;;;2.73;1.33;;;4.40;99.90;;;;;;5054694;28;20725;-72
2022/11/21 04:24:08;;;;;;;2.30;1.40;;;4.40;99.90;;;;;;5054851;28;20200;-72
2022/11/21 04:26:36;;;;;;;3.40;1.53;;;4.30;99.90;;;;;;5054765;28;20200;-72
2022/11/21 04:29:03;;;;;;;2.07;1.30;;;4.20;99.90;;;;;;5054694;28;20200;-72
2022/11/21 04:31:30;;;;;;;2.47;1.27;;;4.20;99.90;;;;;;5054580;28;20195;-72
2022/11/21 04:33:56;;;;;;;2.53;1.30;;;4.20;99.90;;;;;;5054089;28;20203;-72
2022/11/21 04:36:23;;;;;;;2.73;1.43;;;4.20;99.90;;;;;;5055043;28;20204;-72
2022/11/21 04:38:50;;;;;;;1.90;1.17;;;4.10;99.90;;;;;;5056248;28;20220;-72
2022/11/21 04:41:16;;;;;;;1.30;1.10;;;4.10;99.90;;;;;;5055722;28;20197;-72
2022/11/21 04:43:44;;;;;;;1.50;1.40;;;4.00;99.90;;;;;;5054838;28;20307;-72
2022/11/21 04:46:11;;;;;;;1.80;1.37;;;4.00;99.90;;;;;;5054321;28;20202;-72
2022/11/21 04:48:37;;;;;;;0.90;0.80;;;4.00;99.90;;;;;;5054450;28;20724;-73
2022/11/21 04:51:04;;;;;;;1.73;0.90;;;4.00;99.90;;;;;;5054029;28;20228;-73
2022/11/21 04:53:31;;;;;;;1.17;0.93;;;3.90;99.90;;;;;;5054464;28;20200;-72
2022/11/21 04:55:58;;;;;;;1.50;1.00;;;3.90;99.90;;;;;;5054159;28;20261;-72
2022/11/21 04:58:25;;;;;;;1.43;1.10;;;3.90;99.90;;;;;;5054113;28;20207;-72
2022/11/21 05:00:53;;;;;;;2.30;1.30;;;3.80;99.90;;;;;;5054148;28;20203;-73
2022/11/21 05:03:20;;;;;;;2.63;1.13;;;3.80;99.90;;;;;;5053990;28;20272;-73
2022/11/21 05:05:46;;;;;;;1.10;1.00;;;3.80;99.90;;;;;;5053598;28;20201;-73
2022/11/21 05:08:13;;;;;;;2.07;1.00;;;3.80;99.90;;;;;;5053687;28;20448;-73
2022/11/21 05:13:20;;;;;;;0.80;0.80;;;3.80;99.90;;;;;;5054032;28;20227;-72
2022/11/21 05:15:50;;;;;;;0.87;0.83;;;3.80;99.90;;;;;;5054100;28;20194;-72
2022/11/21 05:18:19;;;;;;;1.97;1.00;;;3.70;99.90;;;;;;5054683;28;20236;-72
2022/11/21 05:20:45;;;;;;;2.03;1.03;;;3.70;99.90;;;;;;5056372;28;20203;-72
2022/11/21 05:23:12;;;;;;;1.43;1.07;;;3.60;99.90;;;;;;5055733;28;20712;-72
2022/11/21 05:25:39;;;;;;;1.30;1.10;;;3.60;99.90;;;;;;5056061;28;20195;-72
2022/11/21 05:28:06;;;;;;;1.30;1.20;;;3.60;99.90;;;;;;5059550;28;20201;-72
2022/11/21 05:30:33;;;;;;;1.23;1.13;;;3.60;99.90;;;;;;5058824;28;20232;-72
2022/11/21 05:32:59;;;;;;;1.30;1.20;;;3.60;99.90;;;;;;5058822;28;20201;-72
2022/11/21 05:35:27;;;;;;;2.27;1.20;;;3.60;99.90;;;;;;5060775;28;20195;-72
2022/11/21 05:37:56;;;;;;;1.40;1.30;;;3.50;99.90;;;;;;5055658;28;20248;-72
2022/11/21 05:40:23;;;;;;;1.40;1.30;;;3.50;99.90;;;;;;5056231;28;20204;-72
2022/11/21 05:45:34;;;;;;;1.30;1.20;;;3.50;99.90;;;;;;5057645;28;20283;-72
2022/11/21 05:48:01;;;;;;;1.60;1.50;;;3.40;99.90;;;;;;5057867;28;20197;-72
2022/11/21 05:50:29;;;;;;;1.70;1.33;;;3.40;99.90;;;;;;5059746;28;20201;-72
2022/11/21 05:52:55;;;;;;;1.50;1.40;;;3.40;99.90;;;;;;5056715;28;20202;-72
2022/11/21 05:55:22;;;;;;;1.77;1.67;;;3.40;99.90;;;;;;5055844;28;20609;-72
2022/11/21 05:57:48;;;;;;;2.17;1.50;;;3.40;99.90;;;;;;5056518;28;20202;-72
2022/11/21 06:00:16;;;;;;;1.67;1.57;;;3.40;99.90;;;;;;5057031;28;20206;-72
2022/11/21 06:05:29;;;;;;;2.63;2.00;;;3.50;99.90;;;;;;5056350;28;20243;-72
2022/11/21 06:07:56;;;;;;;2.80;1.90;;;3.50;99.90;;;;;;5053177;28;20275;-72
2022/11/21 06:10:22;;;;;;;4.03;2.33;;;3.50;99.90;;;;;;5053059;28;20194;-72
2022/11/21 06:12:49;;;;;;;4.67;3.00;;;3.60;99.90;;;;;;5053243;28;20203;-72
2022/11/21 06:15:16;;;;;;;3.20;2.30;;;3.60;99.90;;;;;;5053292;28;20203;-72
2022/11/21 06:17:44;;;;;;;19.57;12.93;;;3.60;99.90;;;;;;5055348;28;20195;-73
2022/11/21 06:20:11;;;;;;;6.47;4.67;;;3.60;99.90;;;;;;5054354;28;20202;-72
2022/11/21 06:22:39;;;;;;;5.27;4.10;;;3.60;99.90;;;;;;5052985;28;20226;-72
2022/11/21 06:25:06;;;;;;;4.37;3.43;;;3.60;99.90;;;;;;5053384;28;20256;-72
2022/11/21 06:27:33;;;;;;;6.20;3.87;;;3.60;99.90;;;;;;5053346;28;20202;-72
2022/11/21 06:29:59;;;;;;;5.33;2.93;;;3.60;99.90;;;;;;5053465;28;20203;-72
2022/11/21 06:32:27;;;;;;;4.93;3.30;;;3.70;99.90;;;;;;5054255;28;20206;-72
2022/11/21 06:34:54;;;;;;;3.33;3.03;;;3.70;99.90;;;;;;5053114;28;20232;-72
2022/11/21 06:37:20;;;;;;;4.00;3.20;;;3.70;99.90;;;;;;5052890;28;20203;-72
2022/11/21 06:39:48;;;;;;;5.13;3.30;;;3.80;99.90;;;;;;5053387;28;20611;-72
2022/11/21 06:42:15;;;;;;;3.53;2.77;;;3.70;99.90;;;;;;5053426;28;20199;-72
2022/11/21 06:44:41;;;;;;;3.13;2.60;;;3.70;99.90;;;;;;5053177;28;20198;-72
2022/11/21 06:47:08;;;;;;;3.33;2.73;;;3.80;99.90;;;;;;5054128;28;20199;-72
2022/11/21 06:49:35;;;;;;;3.10;2.43;;;3.80;99.90;;;;;;5053874;28;20530;-72
2022/11/21 06:52:02;;;;;;;3.87;2.40;;;3.80;99.90;;;;;;5053029;28;20199;-72
2022/11/21 06:54:28;;;;;;;3.63;2.40;;;3.80;99.90;;;;;;5053325;28;20205;-72
2022/11/21 06:56:57;;;;;;;2.30;2.00;;;3.80;99.90;;;;;;5056071;28;20297;-72
2022/11/21 06:59:24;;;;;;;2.40;2.20;;;3.80;99.90;;;;;;5056961;28;20289;-72
2022/11/21 07:01:51;;;;;;;2.60;2.10;;;3.80;99.90;;;;;;5057830;28;20203;-72
2022/11/21 07:04:18;;;;;;;2.27;1.97;;;3.80;99.90;;;;;;5059582;28;20227;-73
2022/11/21 07:06:45;;;;;;;2.60;2.10;;;3.80;99.90;;;;;;5062449;28;20205;-72
2022/11/21 07:09:11;;;;;;;2.57;2.10;;;3.80;99.90;;;;;;5063775;28;20701;-72
2022/11/21 07:11:38;;;;;;;4.00;2.90;;;3.70;99.90;;;;;;5061478;28;20202;-72
2022/11/21 07:14:06;;;;;;;3.10;2.30;;;3.70;99.90;;;;;;5058243;28;20260;-72
2022/11/21 07:16:34;;;;;;;3.10;2.77;;;3.80;99.90;;;;;;5056963;28;20202;-72
2022/11/21 07:19:00;;;;;;;3.07;2.37;;;3.80;99.90;;;;;;5056640;28;20595;-73
2022/11/21 07:21:27;;;;;;;3.00;2.70;;;3.90;99.90;;;;;;5056357;28;20204;-72
2022/11/21 07:23:54;;;;;;;4.27;2.57;;;4.00;99.90;;;;;;5056102;28;20229;-72
2022/11/21 07:26:20;;;;;;;2.90;2.53;;;4.00;99.90;;;;;;5056099;28;20652;-72
2022/11/21 07:28:47;;;;;;;3.00;2.80;;;4.10;99.90;;;;;;5056023;28;20198;-72
2022/11/21 07:31:15;;;;;;;3.87;3.20;;;4.30;99.90;;;;;;5056267;28;20198;-72
2022/11/21 07:33:43;;;;;;;4.83;3.30;;;4.30;99.90;;;;;;5056037;28;20256;-72
2022/11/21 07:36:09;;;;;;;4.73;3.33;;;4.30;99.90;;;;;;5056138;28;20193;-72
2022/11/21 07:38:36;;;;;;;4.67;3.53;;;4.40;99.90;;;;;;5055932;28;20200;-72
2022/11/21 07:41:03;;;;;;;4.70;3.60;;;4.40;99.90;;;;;;5056359;28;20253;-72
2022/11/21 07:43:29;;;;;;;4.67;3.77;;;4.50;99.90;;;;;;5056512;28;20276;-72
2022/11/21 07:45:56;;;;;;;6.20;3.40;;;4.60;99.90;;;;;;5055939;28;20627;-72
2022/11/21 07:48:24;;;;;;;3.30;2.70;;;4.60;99.90;;;;;;5055898;28;20196;-71
2022/11/21 07:50:50;;;;;;;5.43;2.93;;;4.60;99.90;;;;;;5056299;28;20204;-72
2022/11/21 07:53:17;;;;;;;4.00;2.40;;;4.60;99.90;;;;;;5056570;28;20561;-72
2022/11/21 07:55:44;;;;;;;5.50;2.93;;;4.50;99.90;;;;;;5055947;28;20203;-72
2022/11/21 07:58:12;;;;;;;4.53;2.50;;;4.50;99.90;;;;;;5056143;28;20202;-72
2022/11/21 08:00:41;;;;;;;4.13;2.73;;;4.50;99.90;;;;;;5056333;28;20250;-73
2022/11/21 08:03:08;;;;;;;3.83;2.63;;;4.60;99.90;;;;;;5064268;28;20280;-74
2022/11/21 08:05:37;;;;;;;3.70;2.80;;;4.70;99.90;;;;;;5062444;28;20205;-73
2022/11/21 08:08:05;;;;;;;4.13;2.90;;;4.80;99.90;;;;;;5060537;28;20255;-73
2022/11/21 08:10:32;;;;;;;4.90;3.00;;;4.80;99.90;;;;;;5063186;28;20228;-73
2022/11/21 08:12:59;;;;;;;5.80;3.30;;;4.80;99.90;;;;;;5060381;28;20227;-74
2022/11/21 08:15:25;;;;;;;4.33;2.83;;;5.00;99.90;;;;;;5062845;28;20664;-73
2022/11/21 08:17:52;;;;;;;4.00;2.90;;;5.00;99.90;;;;;;5061538;28;20197;-73
2022/11/21 08:20:19;;;;;;;4.73;2.90;;;5.10;99.90;;;;;;5061703;28;20209;-73
2022/11/21 08:22:47;;;;;;;5.03;2.97;;;5.20;99.90;;;;;;5061014;28;20200;-73
2022/11/21 08:25:13;;;;;;;5.53;3.20;;;5.20;99.90;;;;;;5063179;28;20226;-74
2022/11/21 08:27:41;;;;;;;3.87;3.00;;;5.20;99.90;;;;;;5063568;28;20196;-74
2022/11/21 08:30:09;;;;;;;4.50;3.17;;;5.10;99.90;;;;;;5063537;28;20254;-73
2022/11/21 08:32:35;;;;;;;9.53;4.03;;;5.10;99.90;;;;;;5055671;28;20246;-73
2022/11/21 08:35:02;;;;;;;5.27;3.67;;;4.90;99.90;;;;;;5054945;28;20213;-73
2022/11/21 08:37:29;;;;;;;6.57;4.10;;;4.90;99.90;;;;;;5054879;28;20227;-73
2022/11/21 08:39:59;;;;;;;7.60;3.77;;;4.90;99.90;;;;;;5055204;28;20204;-72
2022/11/21 08:42:26;;;;;;;4.57;3.60;;;4.90;99.90;;;;;;5054795;28;20196;-71
2022/11/21 08:44:53;;;;;;;5.67;3.80;;;4.90;99.90;;;;;;5054234;28;20772;-72
2022/11/21 08:47:20;;;;;;;5.60;4.40;;;4.90;99.90;;;;;;5055528;28;20204;-72
2022/11/21 08:49:46;;;;;;;13.13;8.33;;;4.90;99.90;;;;;;5054498;28;20204;-71
2022/11/21 08:52:13;;;;;;;5.53;4.13;;;4.90;99.90;;;;;;5054396;28;20199;-71
2022/11/21 08:54:39;;;;;;;7.63;3.50;;;5.00;99.90;;;;;;5054087;28;20250;-71
2022/11/21 08:57:08;;;;;;;6.50;4.27;;;5.10;99.90;;;;;;5053777;28;20254;-72
2022/11/21 08:59:34;;;;;;;6.97;3.90;;;5.20;99.90;;;;;;5054288;28;20243;-72
2022/11/21 09:02:01;;;;;;;9.40;4.70;;;5.40;99.90;;;;;;5054053;28;20247;-72
2022/11/21 09:04:28;;;;;;;8.90;4.60;;;5.50;99.90;;;;;;5053818;28;20279;-71
2022/11/21 09:06:54;;;;;;;12.30;5.63;;;5.60;99.90;;;;;;5054152;28;20194;-72
2022/11/21 09:09:21;;;;;;;6.70;4.20;;;5.70;99.90;;;;;;5053731;28;20229;-72
2022/11/21 09:11:47;;;;;;;8.60;5.03;;;5.70;99.90;;;;;;5054303;28;20275;-72
2022/11/21 09:19:43;;;;;;;6.93;4.03;;;5.60;99.90;;;;;;5012747;28;20205;-72
2022/11/21 09:22:10;;;;;;;9.93;6.17;;;5.60;99.90;;;;;;5053543;28;20236;-72
2022/11/21 09:24:36;;;;;;;22.50;12.77;;;5.60;99.90;;;;;;5053480;28;20708;-71
2022/11/21 09:27:03;;;;;;;9.20;6.00;;;5.60;99.90;;;;;;5053338;28;20676;-71
2022/11/21 09:29:31;;;;;;;10.43;6.50;;;5.60;99.90;;;;;;5054748;28;20223;-71
2022/11/21 09:31:58;;;;;;;10.63;5.93;;;5.40;99.90;;;;;;5053509;28;20201;-71
2022/11/21 09:34:24;;;;;;;11.70;5.70;;;5.40;99.90;;;;;;5053182;28;20637;-71
2022/11/21 09:36:52;;;;;;;26.83;11.70;;;5.30;99.90;;;;;;5053850;28;20200;-71
2022/11/21 09:39:20;;;;;;;25.83;13.57;;;5.30;99.90;;;;;;5053365;28;20267;-71
2022/11/21 09:41:58;;;;;;;11.63;5.93;;;5.30;99.90;;;;;;5053322;28;20212;-72
2022/11/21 09:44:57;;;;;;;10.17;5.10;;;5.30;99.90;;;;;;5053198;28;20231;-72
2022/11/21 09:47:27;;;;;;;12.67;6.90;;;5.40;99.90;;;;;;5053632;28;20208;-72
2022/11/21 09:49:58;;;;;;;8.33;5.57;;;5.30;99.90;;;;;;5053482;28;20197;-71
2022/11/21 09:52:31;;;;;;;10.33;6.03;;;5.20;99.90;;;;;;5053226;28;20205;-72
2022/11/21 09:55:02;;;;;;;10.70;7.03;;;5.10;99.90;;;;;;5053182;28;20193;-71
2022/11/21 09:57:29;;;;;;;14.50;6.93;;;5.10;99.90;;;;;;5053031;28;20256;-71
2022/11/21 09:59:57;;;;;;;9.73;4.40;;;5.10;99.90;;;;;;5052906;28;20612;-71
2022/11/21 10:02:25;;;;;;;9.40;6.53;;;5.10;99.90;;;;;;5053102;28;20250;-71
2022/11/21 10:04:52;;;;;;;5.60;4.40;;;5.30;99.90;;;;;;5052998;28;20230;-71
2022/11/21 10:07:23;;;;;;;14.17;7.40;;;5.40;99.90;;;;;;5053050;28;20204;-71
2022/11/21 10:10:17;;;;;;;9.87;5.67;;;5.40;99.90;;;;;;5052890;28;20226;-71
2022/11/21 10:12:55;;;;;;;14.03;7.53;;;5.40;99.90;;;;;;5050341;28;20534;-70
2022/11/21 10:15:38;;;;;;;9.37;4.03;;;5.40;99.90;;;;;;5053437;28;20262;-71
2022/11/21 10:18:35;;;;;;;9.10;3.90;;;5.20;99.90;;;;;;5053459;28;20220;-73
2022/11/21 10:21:11;;;;;;;12.70;5.70;;;4.90;99.90;;;;;;5047600;28;20211;-74
2022/11/21 10:24:06;;;;;;;7.33;4.90;;;4.70;99.90;;;;;;5053486;28;20640;-72
2022/11/21 10:26:41;;;;;;;9.13;5.03;;;4.70;99.90;;;;;;5053090;28;20205;-72
2022/11/21 10:29:14;;;;;;;26.10;12.27;;;4.60;99.90;;;;;;5053458;28;20197;-72
2022/11/21 10:31:43;;;;;;;11.80;5.40;;;4.60;99.90;;;;;;5055964;28;20251;-72
2022/11/21 10:34:12;;;;;;;5.10;3.70;;;4.60;99.90;;;;;;5057063;28;20211;-72
2022/11/21 10:36:42;;;;;;;8.83;3.73;;;4.60;99.90;;;;;;5057093;28;20194;-73
2022/11/21 10:39:17;;;;;;;20.30;11.03;;;4.50;99.90;;;;;;5056935;28;20219;-72
2022/11/21 10:41:50;;;;;;;13.60;6.73;;;4.40;99.90;;;;;;5057094;28;20194;-72
2022/11/21 10:47:26;;;;;;;4.23;3.60;;;4.50;99.90;;;;;;5057031;28;20263;-72
2022/11/21 10:50:05;;;;;;;6.73;4.30;;;4.60;99.90;;;;;;5057001;28;20253;-72
2022/11/21 10:52:35;;;;;;;7.50;5.87;;;4.70;99.90;;;;;;5057089;28;20220;-73
2022/11/21 10:55:06;;;;;;;9.30;6.83;;;4.70;99.90;;;;;;5056596;28;20201;-72
2022/11/21 10:57:39;;;;;;;10.83;7.03;;;5.00;99.90;;;;;;5056730;28;20200;-74
2022/11/21 11:00:18;;;;;;;19.63;10.93;;;6.10;99.90;;;;;;5057255;28;20204;-73
2022/11/21 11:03:03;;;;;;;14.67;8.80;;;8.10;99.90;;;;;;5057847;28;20205;-72
2022/11/21 11:05:31;;;;;;;8.53;3.33;;;9.60;99.90;;;;;;5055620;28;20284;-73
2022/11/21 11:08:04;;;;;;;11.07;7.20;;;8.40;99.90;;;;;;5055224;28;20283;-73
2022/11/21 11:10:31;;;;;;;9.57;5.70;;;7.90;99.90;;;;;;5055618;28;20192;-73
2022/11/21 11:15:54;;;;;;;5.77;3.60;;;6.40;99.90;;;;;;5058557;28;20216;-74
2022/11/21 11:18:23;;;;;;;7.17;3.63;;;5.90;99.90;;;;;;5056639;28;20236;-72
2022/11/21 11:20:50;;;;;;;9.90;4.03;;;7.10;99.90;;;;;;5056344;28;20251;-73
2022/11/21 11:23:24;;;;;;;15.00;6.67;;;7.30;99.90;;;;;;5056087;28;20202;-73
2022/11/21 11:25:52;;;;;;;5.83;2.60;;;6.60;99.90;;;;;;5056329;28;20221;-72
2022/11/21 11:28:19;;;;;;;7.23;2.87;;;7.20;99.90;;;;;;5055829;28;20197;-72
2022/11/21 11:30:47;;;;;;;4.53;2.43;;;6.90;99.90;;;;;;5055831;28;20197;-72
2022/11/21 11:33:37;;;;;;;6.37;3.70;;;6.10;99.90;;;;;;5055554;28;20197;-72
2022/11/21 11:36:14;;;;;;;5.90;2.63;;;6.00;99.90;;;;;;5055829;28;20251;-71
2022/11/21 11:38:45;;;;;;;6.43;3.50;;;6.40;99.90;;;;;;5055522;28;20284;-72
2022/11/21 11:41:29;;;;;;;5.43;2.83;;;6.50;99.90;;;;;;5055328;28;20232;-72
2022/11/21 11:52:37;;;;;;;11.00;5.93;;;5.80;99.90;;;;;;5055263;28;20200;-71
2022/11/21 11:55:13;;;;;;;76.43;32.13;;;5.90;99.90;;;;;;5055313;28;20267;-71
2022/11/21 11:57:41;;;;;;;6.73;4.17;;;6.10;99.90;;;;;;5055454;28;20197;-71
2022/11/21 12:00:27;;;;;;;7.07;3.97;;;6.50;99.90;;;;;;5054878;28;20198;-71
2022/11/21 12:03:00;;;;;;;16.70;7.10;;;8.30;99.90;;;;;;5054874;28;20194;-71
2022/11/21 12:05:30;;;;;;;6.40;3.03;;;11.00;99.90;;;;;;5054164;28;20723;-72
2022/11/21 12:08:11;;;;;;;10.87;5.40;;;12.40;99.90;;;;;;5054235;28;20221;-72
2022/11/21 12:13:25;;;;;;;5.97;3.27;;;11.10;99.90;;;;;;5054045;28;20675;-72
2022/11/21 12:15:56;;;;;;;6.80;5.27;;;13.10;99.90;;;;;;5054071;28;20707;-73
2022/11/21 12:18:28;;;;;;;4.53;2.87;;;13.50;99.90;;;;;;5053873;28;20201;-73
2022/11/21 12:21:03;;;;;;;3.40;2.23;;;14.40;99.90;;;;;;5053703;28;20206;-73
2022/11/21 12:23:36;;;;;;;4.07;2.60;;;12.20;99.90;;;;;;5054042;28;20197;-73
2022/11/21 12:26:15;;;;;;;5.20;2.00;;;10.00;99.90;;;;;;5053959;28;20229;-73
2022/11/21 12:28:53;;;;;;;4.47;2.03;;;7.80;99.90;;;;;;5054393;28;20197;-73
2022/11/21 12:31:26;;;;;;;5.23;2.40;;;7.20;99.90;;;;;;5054226;28;20255;-74
2022/11/21 12:34:03;;;;;;;5.60;2.60;;;7.50;99.90;;;;;;5054082;28;20255;-73
2022/11/21 12:36:38;;;;;;;7.40;2.40;;;12.30;99.90;;;;;;5053699;28;20242;-72
2022/11/21 12:39:45;;;;;;;2.00;1.63;;;14.00;99.90;;;;;;5054056;28;20201;-72
2022/11/21 12:45:18;;;;;;;4.37;1.60;;;12.20;99.90;;;;;;5039554;28;20275;-73
2022/11/21 12:56:43;;;;;;;4.13;2.17;;;15.60;99.90;;;;;;5053635;28;20201;-74
2022/11/21 12:59:13;;;;;;;3.83;2.45;;;18.60;98.20;;;;;;5053425;28;20201;-74
2022/11/21 13:01:50;;;;;;;5.60;4.30;;;16.10;97.50;;;;;;5053655;28;20205;-74
2022/11/21 13:04:22;;;;;;;2.67;2.03;;;15.90;97.20;;;;;;5053222;28;20230;-74
2022/11/21 13:06:51;;;;;;;4.20;2.60;;;13.70;98.80;;;;;;5053109;28;20248;-74
2022/11/21 13:09:21;;;;;;;3.70;2.42;;;13.30;99.90;;;;;;5053055;28;20233;-74
2022/11/21 13:12:00;;;;;;;6.25;2.40;;;14.00;99.80;;;;;;5053124;28;20202;-73
2022/11/21 13:14:38;;;;;;;4.47;2.00;;;11.10;99.90;;;;;;5053148;28;20205;-74
2022/11/21 13:17:14;;;;;;;3.37;1.90;;;10.10;99.90;;;;;;5053229;28;20201;-71
2022/11/21 13:19:47;;;;;;;5.13;2.83;;;10.00;99.90;;;;;;5052889;28;20637;-72
2022/11/21 13:22:48;;;;;;;5.13;2.50;;;10.30;99.90;;;;;;5052958;28;20213;-72
2022/11/21 13:25:39;;;;;;;5.90;2.50;;;9.20;99.90;;;;;;4971841;28;20228;-72
2022/11/21 13:28:39;;;;;;;4.43;2.20;;;8.70;99.90;;;;;;4971904;28;20208;-72
2022/11/21 13:31:28;;;;;;;6.10;2.30;;;8.60;99.90;;;;;;4978701;28;20211;-72
2022/11/21 13:33:54;;;;;;;4.20;2.10;;;12.80;99.90;;;;;;4991176;28;20196;-72
2022/11/21 13:36:42;;;;;;;7.83;2.80;;;12.70;99.90;;;;;;5027367;28;20665;-72
2022/11/21 13:39:34;;;;;;;5.27;2.80;;;11.20;99.90;;;;;;5052734;28;20449;-72
2022/11/21 13:44:54;;;;;;;5.77;2.50;;;10.30;99.90;;;;;;5052729;28;20236;-72
2022/11/21 13:48:04;;;;;;;5.30;2.50;;;10.10;99.90;;;;;;5052387;28;20588;-72
2022/11/21 13:50:51;;;;;;;7.27;2.73;;;9.30;99.90;;;;;;5052470;28;20537;-72
2022/11/21 13:53:59;;;;;;;4.70;2.80;;;8.80;99.90;;;;;;5052566;28;20279;-72